createdAt,value
2023-03-27T00:02:26.279Z,3.10
2023-03-27T00:04:55.725Z,2.20
2023-03-27T00:07:23.592Z,1.35
2023-03-27T00:09:53.433Z,1.08
2023-03-27T00:12:21.152Z,1.00
2023-03-27T00:14:48.881Z,1.08
2023-03-27T00:17:16.628Z,1.00
2023-03-27T00:19:44.911Z,1.10
2023-03-27T00:22:12.850Z,0.90
2023-03-27T00:24:40.591Z,1.58
2023-03-27T00:27:10.147Z,1.83
2023-03-27T00:29:37.909Z,0.85
2023-03-27T00:32:06.020Z,1.00
2023-03-27T00:34:33.782Z,1.10
2023-03-27T00:37:01.581Z,0.77
2023-03-27T00:39:29.438Z,1.00
2023-03-27T00:41:57.175Z,0.88
2023-03-27T00:44:31.228Z,0.80
2023-03-27T00:46:59.203Z,0.80
2023-03-27T00:49:30.666Z,0.65
2023-03-27T00:51:59.619Z,1.60
2023-03-27T00:54:29.940Z,1.38
2023-03-27T00:57:01.174Z,1.33
2023-03-27T00:59:34.631Z,1.13
2023-03-27T01:04:32.328Z,1.10
2023-03-27T01:07:00.927Z,1.20
2023-03-27T01:09:28.946Z,1.00
2023-03-27T01:12:12.203Z,0.95
2023-03-27T01:14:54.539Z,2.13
2023-03-27T01:17:37.790Z,1.38
2023-03-27T01:20:30.292Z,1.58
2023-03-27T01:23:15.664Z,1.23
2023-03-27T01:26:52.662Z,1.30
2023-03-27T01:29:27.608Z,1.73
2023-03-27T01:32:27.636Z,1.15
2023-03-27T01:35:29.498Z,1.45
2023-03-27T01:38:28.735Z,1.50
2023-03-27T01:41:02.822Z,1.25
2023-03-27T01:43:37.631Z,1.55
2023-03-27T01:46:09.842Z,1.10
2023-03-27T01:48:44.602Z,1.25
2023-03-27T01:51:20.809Z,1.13
2023-03-27T01:53:53.617Z,1.10
2023-03-27T01:56:27.105Z,1.63
2023-03-27T02:01:29.363Z,1.35
2023-03-27T02:04:01.801Z,1.45
2023-03-27T02:06:34.404Z,1.63
2023-03-27T02:09:07.051Z,1.27
2023-03-27T02:11:39.275Z,1.60
2023-03-27T02:14:10.712Z,1.40
2023-03-27T02:16:42.962Z,1.30
2023-03-27T02:19:14.758Z,1.50
2023-03-27T02:21:42.462Z,1.40
2023-03-27T02:24:10.260Z,1.60
2023-03-27T02:26:39.355Z,1.33
2023-03-27T02:29:25.953Z,1.50
2023-03-27T02:32:05.863Z,2.22
2023-03-27T02:34:50.877Z,1.00
2023-03-27T02:37:31.973Z,1.05
2023-03-27T02:40:15.006Z,1.35
2023-03-27T02:42:58.886Z,1.30
2023-03-27T02:45:32.599Z,1.95
2023-03-27T02:48:06.776Z,1.42
2023-03-27T02:50:39.914Z,1.48
2023-03-27T02:53:12.740Z,1.42
2023-03-27T02:55:44.650Z,2.00
2023-03-27T02:58:18.317Z,1.52
2023-03-27T03:00:50.667Z,2.00
2023-03-27T03:03:28.046Z,2.33
2023-03-27T03:05:57.032Z,1.65
2023-03-27T03:08:25.289Z,2.30
2023-03-27T03:10:53.035Z,2.15
2023-03-27T03:13:22.316Z,1.40
2023-03-27T03:15:50.686Z,1.17
2023-03-27T03:18:18.456Z,1.40
2023-03-27T03:20:46.170Z,1.90
2023-03-27T03:23:13.978Z,1.52
2023-03-27T03:25:41.910Z,2.20
2023-03-27T03:28:10.600Z,1.80
2023-03-27T03:30:43.350Z,2.15
2023-03-27T03:33:11.167Z,2.10
2023-03-27T03:35:39.015Z,2.05
2023-03-27T03:38:07.451Z,1.38
2023-03-27T03:40:35.412Z,1.58
2023-03-27T03:43:03.386Z,1.42
2023-03-27T03:45:31.145Z,1.10
2023-03-27T03:48:00.347Z,1.50
2023-03-27T03:50:28.079Z,2.33
2023-03-27T03:52:55.856Z,1.75
2023-03-27T03:55:25.609Z,1.38
2023-03-27T03:57:53.608Z,1.40
2023-03-27T04:00:22.857Z,1.48
2023-03-27T04:02:53.296Z,2.60
2023-03-27T04:05:23.588Z,1.80
2023-03-27T04:07:51.324Z,2.10
2023-03-27T04:10:19.260Z,2.05
2023-03-27T04:12:50.153Z,2.42
2023-03-27T04:15:18.318Z,1.85
2023-03-27T04:17:48.369Z,2.13
2023-03-27T04:20:17.253Z,1.42
2023-03-27T04:22:48.836Z,1.90
2023-03-27T04:25:18.334Z,2.20
2023-03-27T04:27:46.266Z,2.03
2023-03-27T04:30:15.839Z,2.20
2023-03-27T04:32:43.789Z,2.17
2023-03-27T04:35:11.936Z,1.98
2023-03-27T04:37:41.661Z,1.88
2023-03-27T04:40:14.416Z,2.67
2023-03-27T04:42:44.029Z,2.05
2023-03-27T04:45:14.292Z,1.80
2023-03-27T04:47:42.754Z,1.55
2023-03-27T04:50:12.820Z,2.13
2023-03-27T04:52:40.603Z,1.90
2023-03-27T04:55:12.142Z,2.58
2023-03-27T04:57:41.751Z,2.88
2023-03-27T05:00:16.297Z,2.50
2023-03-27T05:02:44.790Z,2.50
2023-03-27T05:05:13.872Z,2.13
2023-03-27T05:07:45.601Z,2.65
2023-03-27T05:10:15.796Z,1.70
2023-03-27T05:12:44.540Z,2.33
2023-03-27T05:15:12.714Z,3.22
2023-03-27T05:17:41.855Z,4.32
2023-03-27T05:20:12.377Z,4.32
2023-03-27T05:22:40.102Z,3.92
2023-03-27T05:25:08.540Z,3.75
2023-03-27T05:27:40.050Z,2.13
2023-03-27T05:30:09.282Z,2.17
2023-03-27T05:32:38.066Z,1.83
2023-03-27T05:35:06.629Z,1.88
2023-03-27T05:37:36.323Z,2.75
2023-03-27T05:40:04.381Z,2.35
2023-03-27T05:42:32.136Z,2.10
2023-03-27T05:45:01.308Z,1.92
2023-03-27T05:47:29.270Z,2.85
2023-03-27T05:49:57.015Z,1.83
2023-03-27T05:52:28.862Z,1.92
2023-03-27T05:54:56.765Z,2.20
2023-03-27T05:57:24.482Z,2.55
2023-03-27T05:59:52.733Z,2.03
2023-03-27T06:02:21.894Z,1.88
2023-03-27T06:04:49.696Z,2.47
2023-03-27T06:07:17.398Z,2.10
2023-03-27T06:09:45.142Z,2.08
2023-03-27T06:12:12.885Z,2.17
2023-03-27T06:14:40.620Z,2.35
2023-03-27T06:17:08.352Z,1.85
2023-03-27T06:19:37.482Z,1.92
2023-03-27T06:22:05.230Z,2.08
2023-03-27T06:24:32.988Z,1.58
2023-03-27T06:27:01.156Z,2.03
2023-03-27T06:29:29.615Z,1.88
2023-03-27T06:31:58.271Z,2.08
2023-03-27T06:34:25.983Z,2.00
2023-03-27T06:36:55.095Z,2.05
2023-03-27T06:39:22.868Z,2.45
2023-03-27T06:41:50.636Z,2.47
2023-03-27T06:44:18.371Z,3.10
2023-03-27T06:46:46.161Z,4.18
2023-03-27T06:49:13.963Z,5.05
2023-03-27T06:51:41.816Z,4.38
2023-03-27T06:54:12.398Z,4.60
2023-03-27T06:56:40.169Z,3.83
2023-03-27T06:59:09.006Z,4.05
2023-03-27T07:01:37.184Z,3.95
2023-03-27T07:04:07.029Z,5.20
2023-03-27T07:06:34.773Z,5.20
2023-03-27T07:09:02.567Z,6.00
2023-03-27T07:11:32.103Z,3.92
2023-03-27T07:14:00.363Z,3.25
2023-03-27T07:16:28.291Z,2.70
2023-03-27T07:18:59.436Z,3.20
2023-03-27T07:21:29.119Z,2.67
2023-03-27T07:23:56.847Z,3.25
2023-03-27T07:26:24.618Z,4.22
2023-03-27T07:28:54.722Z,3.40
2023-03-27T07:33:53.215Z,3.50
2023-03-27T07:36:21.120Z,3.75
2023-03-27T07:38:48.892Z,2.88
2023-03-27T07:41:16.622Z,4.22
2023-03-27T07:43:44.385Z,3.40
2023-03-27T07:46:13.790Z,3.63
2023-03-27T07:48:41.653Z,3.47
2023-03-27T07:51:14.072Z,3.28
2023-03-27T07:53:43.597Z,3.30
2023-03-27T07:56:12.060Z,3.13
2023-03-27T07:58:39.980Z,2.80
2023-03-27T08:01:08.010Z,3.08
2023-03-27T08:03:38.776Z,3.35
2023-03-27T08:06:07.474Z,2.95
2023-03-27T08:08:35.225Z,3.00
2023-03-27T08:11:04.272Z,3.72
2023-03-27T08:13:32.201Z,3.13
2023-03-27T08:16:04.912Z,2.47
2023-03-27T08:18:32.685Z,3.13
2023-03-27T08:21:03.554Z,2.13
2023-03-27T08:23:32.667Z,2.70
2023-03-27T08:26:01.129Z,2.63
2023-03-27T08:28:29.665Z,2.22
2023-03-27T08:31:02.823Z,2.42
2023-03-27T08:33:31.417Z,2.20
2023-03-27T08:35:59.581Z,1.75
2023-03-27T08:38:33.090Z,2.08
2023-03-27T08:43:34.915Z,2.75
2023-03-27T08:46:07.294Z,1.70
2023-03-27T08:48:40.774Z,1.87
2023-03-27T08:53:46.222Z,3.05
2023-03-27T08:56:15.451Z,2.08
2023-03-27T08:58:43.910Z,1.85
2023-03-27T09:01:20.151Z,1.50
2023-03-27T09:03:57.132Z,1.70
2023-03-27T09:06:27.812Z,1.38
2023-03-27T09:09:07.100Z,1.13
2023-03-27T09:11:48.868Z,1.45
2023-03-27T09:14:27.190Z,1.15
2023-03-27T09:16:57.020Z,0.98
2023-03-27T09:19:34.677Z,1.25
2023-03-27T09:22:06.870Z,1.45
2023-03-27T09:24:40.278Z,0.88
2023-03-27T09:29:43.169Z,0.95
2023-03-27T09:32:14.818Z,0.93
2023-03-27T09:34:43.940Z,1.13
2023-03-27T09:37:17.707Z,0.50
2023-03-27T09:39:51.405Z,0.88
2023-03-27T09:42:25.199Z,0.80
2023-03-27T09:44:56.862Z,0.68
2023-03-27T09:47:32.855Z,0.63
2023-03-27T09:50:19.304Z,0.73
2023-03-27T09:52:47.031Z,0.70
2023-03-27T09:55:26.828Z,0.90
2023-03-27T09:57:58.939Z,1.00
2023-03-27T10:00:30.913Z,0.90
2023-03-27T10:03:05.882Z,0.90
2023-03-27T10:05:33.866Z,1.27
2023-03-27T10:08:02.453Z,1.20
2023-03-27T10:10:33.054Z,1.00
2023-03-27T10:13:03.408Z,0.98
2023-03-27T10:15:36.397Z,1.08
2023-03-27T10:18:07.282Z,0.77
2023-03-27T10:20:35.695Z,0.90
2023-03-27T10:23:08.393Z,0.80
2023-03-27T10:25:39.968Z,0.90
2023-03-27T10:28:18.794Z,1.13
2023-03-27T10:30:47.058Z,1.13
2023-03-27T10:33:14.796Z,1.38
2023-03-27T10:35:44.865Z,0.90
2023-03-27T10:38:15.238Z,0.90
2023-03-27T10:40:49.765Z,0.75
2023-03-27T10:43:26.112Z,1.25
2023-03-27T10:45:57.374Z,0.90
2023-03-27T10:48:38.279Z,0.82
2023-03-27T10:51:14.174Z,0.90
2023-03-27T10:53:50.847Z,0.63
2023-03-27T10:56:27.427Z,0.60
2023-03-27T10:59:00.879Z,0.68
2023-03-27T11:01:34.693Z,0.52
2023-03-27T11:04:09.025Z,0.50
2023-03-27T11:06:41.122Z,0.65
2023-03-27T11:09:16.102Z,0.60
2023-03-27T11:11:52.449Z,0.50
2023-03-27T11:14:25.271Z,0.98
2023-03-27T11:16:57.839Z,0.50
2023-03-27T11:19:37.619Z,0.82
2023-03-27T11:22:08.732Z,0.80
2023-03-27T11:24:41.913Z,0.60
2023-03-27T11:27:17.059Z,0.60
2023-03-27T11:29:51.259Z,1.30
2023-03-27T11:32:24.173Z,0.65
2023-03-27T11:34:57.567Z,0.50
2023-03-27T11:37:33.952Z,1.20
2023-03-27T11:40:06.945Z,0.50
2023-03-27T11:42:42.530Z,0.70
2023-03-27T11:45:13.390Z,0.47
2023-03-27T11:47:53.200Z,0.60
2023-03-27T11:50:30.680Z,0.77
2023-03-27T11:53:16.457Z,0.98
2023-03-27T11:55:59.407Z,1.02
2023-03-27T11:58:33.334Z,0.93
2023-03-27T12:01:08.146Z,0.40
2023-03-27T12:04:01.099Z,0.70
2023-03-27T12:06:36.173Z,0.50
2023-03-27T12:09:21.593Z,0.68
2023-03-27T12:11:59.260Z,0.85
2023-03-27T12:14:53.397Z,0.60
2023-03-27T12:17:45.913Z,0.70
2023-03-27T12:20:43.510Z,0.70
2023-03-27T12:23:30.047Z,0.70
2023-03-27T12:26:18.777Z,0.82
2023-03-27T12:29:01.858Z,0.60
2023-03-27T12:31:51.282Z,1.20
2023-03-27T12:34:32.100Z,0.85
2023-03-27T12:37:00.940Z,1.13
2023-03-27T12:39:28.925Z,0.80
2023-03-27T12:41:57.588Z,0.77
2023-03-27T12:44:30.608Z,0.60
2023-03-27T12:47:21.495Z,1.13
2023-03-27T12:49:58.325Z,0.70
2023-03-27T12:52:26.876Z,0.88
2023-03-27T12:55:32.070Z,0.88
2023-03-27T12:58:01.201Z,0.80
2023-03-27T13:00:30.037Z,0.90
2023-03-27T13:03:40.580Z,0.57
2023-03-27T13:06:26.970Z,0.50
2023-03-27T13:09:10.471Z,0.50
2023-03-27T13:14:39.519Z,0.63
2023-03-27T13:17:23.632Z,0.70
2023-03-27T13:20:07.862Z,0.63
2023-03-27T13:22:49.208Z,0.73
2023-03-27T13:25:31.508Z,0.90
2023-03-27T13:28:19.720Z,0.85
2023-03-27T13:30:49.348Z,0.70
2023-03-27T13:33:24.317Z,0.75
2023-03-27T13:36:05.948Z,0.73
2023-03-27T13:39:14.849Z,0.50
2023-03-27T13:41:56.214Z,0.68
2023-03-27T13:44:35.511Z,0.90
2023-03-27T13:47:15.383Z,0.68
2023-03-27T13:50:08.828Z,1.13
2023-03-27T13:53:09.455Z,0.80
2023-03-27T13:56:21.869Z,0.73
2023-03-27T13:59:22.096Z,0.60
2023-03-27T14:02:01.123Z,0.80
2023-03-27T14:04:40.841Z,0.65
2023-03-27T14:07:52.466Z,0.85
2023-03-27T14:10:34.382Z,0.77
2023-03-27T14:13:15.706Z,0.50
2023-03-27T14:16:12.367Z,0.60
2023-03-27T14:19:21.740Z,0.55
2023-03-27T14:21:54.246Z,0.60
2023-03-27T14:24:32.376Z,0.70
2023-03-27T14:27:03.626Z,0.68
2023-03-27T14:29:32.429Z,0.60
2023-03-27T14:32:04.864Z,1.13
2023-03-27T14:34:47.276Z,0.70
2023-03-27T14:37:29.653Z,1.05
2023-03-27T14:39:59.247Z,0.45
2023-03-27T14:42:32.804Z,0.70
2023-03-27T14:45:20.281Z,0.50
2023-03-27T14:47:51.117Z,1.00
2023-03-27T14:50:19.708Z,1.45
2023-03-27T14:52:52.608Z,0.60
2023-03-27T14:55:22.724Z,0.70
2023-03-27T14:57:53.345Z,0.90
2023-03-27T15:00:24.489Z,0.75
2023-03-27T15:02:57.169Z,0.80
2023-03-27T15:05:25.039Z,0.70
2023-03-27T15:07:52.877Z,0.52
2023-03-27T15:10:24.300Z,0.75
2023-03-27T15:12:54.803Z,1.15
2023-03-27T15:15:27.780Z,0.60
2023-03-27T15:17:59.601Z,0.90
2023-03-27T15:20:31.818Z,0.68
2023-03-27T15:23:06.654Z,0.80
2023-03-27T15:25:39.343Z,0.40
2023-03-27T15:28:16.041Z,0.80
2023-03-27T15:30:46.595Z,0.90
2023-03-27T15:33:20.259Z,1.02
2023-03-27T15:35:52.565Z,0.70
2023-03-27T15:38:26.499Z,0.60
2023-03-27T15:41:03.453Z,0.77
2023-03-27T15:43:34.732Z,0.55
2023-03-27T15:46:13.853Z,0.73
2023-03-27T15:48:45.244Z,0.52
2023-03-27T15:51:15.336Z,1.20
2023-03-27T15:53:45.158Z,0.68
2023-03-27T15:56:21.905Z,0.50
2023-03-27T15:58:54.272Z,0.65
2023-03-27T16:01:24.651Z,0.77
2023-03-27T16:03:53.782Z,0.60
2023-03-27T16:06:28.020Z,0.55
2023-03-27T16:08:56.456Z,0.70
2023-03-27T16:11:42.828Z,0.80
2023-03-27T16:14:27.390Z,0.80
2023-03-27T16:17:10.807Z,0.70
2023-03-27T16:19:49.760Z,1.80
2023-03-27T16:22:21.067Z,0.50
2023-03-27T16:24:48.870Z,0.40
2023-03-27T16:27:17.076Z,0.82
2023-03-27T16:29:47.361Z,1.05
2023-03-27T16:32:15.512Z,0.65
2023-03-27T16:34:44.246Z,0.80
2023-03-27T16:37:12.828Z,0.60
2023-03-27T16:39:41.151Z,0.80
2023-03-27T16:42:18.249Z,0.52
2023-03-27T16:44:47.684Z,0.98
2023-03-27T16:47:16.093Z,0.98
2023-03-27T16:49:44.414Z,0.52
2023-03-27T16:52:12.141Z,0.80
2023-03-27T16:54:39.855Z,1.15
2023-03-27T16:57:07.603Z,0.55
2023-03-27T16:59:35.382Z,0.75
2023-03-27T17:02:04.684Z,0.80
2023-03-27T17:04:32.740Z,1.20
2023-03-27T17:07:00.579Z,0.95
2023-03-27T17:09:28.532Z,1.00
2023-03-27T17:11:56.340Z,0.68
2023-03-27T17:14:24.129Z,1.30
2023-03-27T17:16:52.213Z,0.77
2023-03-27T17:19:21.893Z,0.85
2023-03-27T17:21:49.621Z,0.77
2023-03-27T17:24:19.784Z,0.55
2023-03-27T17:26:47.566Z,1.02
2023-03-27T17:29:15.377Z,0.70
2023-03-27T17:31:43.158Z,0.73
2023-03-27T17:34:11.092Z,1.02
2023-03-27T17:36:47.107Z,0.63
2023-03-27T17:39:17.863Z,0.75
2023-03-27T17:41:45.530Z,0.88
2023-03-27T17:44:13.635Z,0.93
2023-03-27T17:46:41.746Z,0.73
2023-03-27T17:49:09.462Z,0.75
2023-03-27T17:51:37.844Z,1.58
2023-03-27T17:54:07.035Z,1.65
2023-03-27T17:56:34.775Z,1.17
2023-03-27T17:59:02.487Z,2.38
2023-03-27T18:01:31.535Z,5.35
2023-03-27T18:04:00.525Z,9.70
2023-03-27T18:06:28.443Z,12.00
2023-03-27T18:08:56.203Z,17.27
2023-03-27T18:11:25.841Z,20.42
2023-03-27T18:13:53.701Z,17.88
2023-03-27T18:16:22.099Z,21.35
2023-03-27T18:18:50.980Z,18.75
2023-03-27T18:21:18.838Z,11.07
2023-03-27T18:23:47.029Z,10.02
2023-03-27T18:26:15.467Z,5.57
2023-03-27T18:28:44.756Z,3.38
2023-03-27T18:31:13.582Z,2.13
2023-03-27T18:33:41.433Z,1.50
2023-03-27T18:36:11.856Z,1.85
2023-03-27T18:38:40.844Z,0.70
2023-03-27T18:41:09.081Z,0.90
2023-03-27T18:43:37.257Z,1.17
2023-03-27T18:46:08.321Z,0.70
2023-03-27T18:48:36.680Z,0.70
2023-03-27T18:51:06.314Z,0.70
2023-03-27T18:53:34.394Z,0.85
2023-03-27T18:56:02.428Z,1.08
2023-03-27T18:58:30.774Z,0.82
2023-03-27T19:00:59.986Z,0.60
2023-03-27T19:03:34.728Z,0.60
2023-03-27T19:06:04.344Z,0.95
2023-03-27T19:08:32.715Z,0.75
2023-03-27T19:11:00.694Z,1.02
2023-03-27T19:13:28.670Z,1.05
2023-03-27T19:15:56.374Z,0.80
2023-03-27T19:18:25.570Z,1.35
2023-03-27T19:20:55.932Z,0.90
2023-03-27T19:23:23.821Z,1.00
2023-03-27T19:25:52.328Z,0.63
2023-03-27T19:28:20.422Z,0.80
2023-03-27T19:30:48.527Z,0.90
2023-03-27T19:33:16.716Z,1.58
2023-03-27T19:35:44.692Z,1.33
2023-03-27T19:38:14.151Z,1.52
2023-03-27T19:40:41.845Z,1.50
2023-03-27T19:43:09.593Z,1.35
2023-03-27T19:45:37.291Z,1.70
2023-03-27T19:48:05.661Z,1.50
2023-03-27T19:50:34.108Z,1.45
2023-03-27T19:53:08.642Z,1.67
2023-03-27T19:55:38.647Z,1.95
2023-03-27T19:58:06.398Z,2.25
2023-03-27T20:00:34.968Z,1.60
2023-03-27T20:03:03.022Z,1.33
2023-03-27T20:05:31.158Z,1.73
2023-03-27T20:07:58.881Z,1.27
2023-03-27T20:10:27.098Z,1.25
2023-03-27T20:12:56.178Z,1.42
2023-03-27T20:15:23.894Z,1.30
2023-03-27T20:17:51.605Z,1.27
2023-03-27T20:20:19.846Z,1.45
2023-03-27T20:22:56.875Z,1.00
2023-03-27T20:25:28.030Z,1.02
2023-03-27T20:27:57.349Z,1.17
2023-03-27T20:30:25.353Z,0.75
2023-03-27T20:32:53.243Z,1.15
2023-03-27T20:35:24.690Z,1.52
2023-03-27T20:37:57.511Z,1.30
2023-03-27T20:40:26.591Z,1.10
2023-03-27T20:43:03.697Z,1.00
2023-03-27T20:45:32.879Z,1.15
2023-03-27T20:48:04.060Z,1.38
2023-03-27T20:50:35.132Z,1.25
2023-03-27T20:53:04.144Z,1.35
2023-03-27T20:55:34.702Z,1.15
2023-03-27T20:58:07.470Z,0.98
2023-03-27T21:00:36.669Z,2.10
2023-03-27T21:03:04.757Z,1.25
2023-03-27T21:05:32.683Z,0.98
2023-03-27T21:08:00.429Z,1.35
2023-03-27T21:10:28.174Z,1.65
2023-03-27T21:12:56.662Z,1.40
2023-03-27T21:15:24.368Z,1.33
2023-03-27T21:17:53.499Z,1.65
2023-03-27T21:20:21.386Z,1.30
2023-03-27T21:22:52.697Z,1.20
2023-03-27T21:25:21.272Z,1.20
2023-03-27T21:27:49.150Z,1.00
2023-03-27T21:30:17.322Z,1.40
2023-03-27T21:32:47.116Z,1.10
2023-03-27T21:35:16.347Z,1.30
2023-03-27T21:37:44.082Z,1.15
2023-03-27T21:40:12.972Z,1.13
2023-03-27T21:42:40.750Z,1.00
2023-03-27T21:45:09.678Z,1.38
2023-03-27T21:47:47.159Z,1.35
2023-03-27T21:50:16.927Z,1.30
2023-03-27T21:52:44.616Z,1.10
2023-03-27T21:55:12.434Z,1.33
2023-03-27T21:57:40.146Z,1.00
2023-03-27T22:00:09.359Z,1.15
2023-03-27T22:02:37.161Z,1.02
2023-03-27T22:05:05.651Z,1.00
2023-03-27T22:07:34.979Z,1.35
2023-03-27T22:10:05.378Z,1.30
2023-03-27T22:12:34.946Z,1.13
2023-03-27T22:15:02.695Z,1.00
2023-03-27T22:17:30.526Z,1.92
2023-03-27T22:19:59.199Z,1.20
2023-03-27T22:22:27.470Z,1.00
2023-03-27T22:24:56.542Z,1.00
2023-03-27T22:27:24.235Z,1.20
2023-03-27T22:29:51.927Z,1.13
2023-03-27T22:32:19.790Z,0.90
2023-03-27T22:34:49.252Z,0.93
2023-03-27T22:37:17.037Z,1.08
2023-03-27T22:39:44.840Z,1.30
2023-03-27T22:42:14.380Z,1.00
2023-03-27T22:44:41.935Z,0.90
2023-03-27T22:47:09.690Z,1.10
2023-03-27T22:49:37.789Z,0.80
2023-03-27T22:52:06.184Z,1.10
2023-03-27T22:54:33.974Z,1.15
2023-03-27T22:57:01.955Z,1.40
2023-03-27T22:59:31.183Z,1.20
2023-03-27T23:01:59.037Z,1.52
2023-03-27T23:04:26.803Z,1.83
2023-03-27T23:06:54.582Z,1.00
2023-03-27T23:09:22.413Z,1.10
2023-03-27T23:11:50.146Z,1.25
2023-03-27T23:14:18.127Z,1.83
2023-03-27T23:16:47.306Z,1.05
2023-03-27T23:19:15.652Z,1.38
2023-03-27T23:21:43.352Z,1.40
2023-03-27T23:24:11.102Z,1.05
2023-03-27T23:26:38.789Z,1.60
2023-03-27T23:29:06.544Z,1.30
2023-03-27T23:31:34.410Z,1.30
2023-03-27T23:34:03.542Z,1.38
2023-03-27T23:36:31.303Z,2.25
2023-03-27T23:38:59.036Z,1.02
2023-03-27T23:41:26.826Z,1.17
2023-03-27T23:43:54.808Z,1.27
2023-03-27T23:46:22.657Z,1.50
2023-03-27T23:48:50.435Z,1.45
2023-03-27T23:51:19.574Z,1.23
2023-03-27T23:53:47.489Z,1.20
2023-03-27T23:56:15.532Z,1.08
2023-03-27T23:58:43.410Z,1.63
